createdAt,value
2018-09-26T00:01:42.941Z,55.35
2018-09-26T00:04:49.147Z,55.43
2018-09-26T00:07:52.685Z,55.39
2018-09-26T00:10:56.183Z,55.50
2018-09-26T00:13:59.666Z,55.33
2018-09-26T00:17:03.160Z,55.19
2018-09-26T00:20:07.587Z,55.56
2018-09-26T00:23:10.929Z,55.76
2018-09-26T00:26:14.383Z,55.82
2018-09-26T00:29:17.909Z,55.83
2018-09-26T00:32:21.375Z,55.74
2018-09-26T00:35:25.897Z,55.17
2018-09-26T00:38:29.317Z,55.43
2018-09-26T00:41:32.692Z,55.33
2018-09-26T00:44:36.329Z,55.40
2018-09-26T00:47:39.804Z,54.99
2018-09-26T00:50:43.188Z,55.45
2018-09-26T00:53:46.617Z,55.36
2018-09-26T00:56:50.038Z,56.07
2018-09-26T00:59:53.522Z,55.58
2018-09-26T01:02:58.011Z,56.12
2018-09-26T01:06:01.434Z,56.19
2018-09-26T01:09:07.718Z,56.14
2018-09-26T01:12:11.087Z,55.80
2018-09-26T01:15:14.496Z,55.84
2018-09-26T01:18:17.938Z,55.37
2018-09-26T01:21:21.400Z,55.60
2018-09-26T01:24:24.817Z,55.67
2018-09-26T01:27:32.040Z,55.48
2018-09-26T01:30:35.565Z,55.73
2018-09-26T01:33:39.005Z,55.95
2018-09-26T01:36:42.401Z,56.04
2018-09-26T01:39:45.796Z,55.75
2018-09-26T01:42:49.197Z,55.88
2018-09-26T01:45:52.598Z,55.97
2018-09-26T01:48:55.990Z,56.04
2018-09-26T01:51:59.491Z,56.31
2018-09-26T01:55:02.987Z,56.03
2018-09-26T01:58:06.549Z,55.95
2018-09-26T02:01:09.999Z,55.54
2018-09-26T02:04:13.394Z,56.09
2018-09-26T02:07:16.814Z,56.35
2018-09-26T02:10:20.235Z,56.27
2018-09-26T02:13:23.578Z,56.74
2018-09-26T02:16:26.996Z,56.75
2018-09-26T02:19:30.467Z,56.48
2018-09-26T02:22:33.905Z,56.58
2018-09-26T02:25:38.333Z,56.78
2018-09-26T02:28:41.792Z,56.72
2018-09-26T02:31:45.235Z,56.68
2018-09-26T02:34:49.654Z,56.72
2018-09-26T02:37:53.052Z,56.89
2018-09-26T02:40:56.473Z,56.67
2018-09-26T02:43:59.858Z,57.44
2018-09-26T02:47:03.687Z,57.51
2018-09-26T02:50:07.126Z,57.45
2018-09-26T02:53:10.592Z,57.34
2018-09-26T02:56:13.976Z,57.58
2018-09-26T02:59:17.372Z,57.78
2018-09-26T03:02:20.794Z,57.64
2018-09-26T03:05:24.224Z,57.91
2018-09-26T03:08:27.567Z,57.91
2018-09-26T03:11:31.073Z,57.80
2018-09-26T03:14:34.583Z,57.83
2018-09-26T03:17:38.065Z,57.97
2018-09-26T03:20:41.592Z,57.66
2018-09-26T03:23:45.091Z,58.21
2018-09-26T03:26:48.616Z,58.03
2018-09-26T03:29:52.096Z,58.03
2018-09-26T03:32:55.600Z,58.28
2018-09-26T03:35:59.289Z,57.88
2018-09-26T03:39:02.918Z,57.65
2018-09-26T03:42:06.445Z,58.10
2018-09-26T03:45:09.921Z,58.41
2018-09-26T03:48:13.532Z,58.82
2018-09-26T03:51:17.063Z,58.18
2018-09-26T03:54:20.532Z,58.36
2018-09-26T03:57:24.035Z,58.58
2018-09-26T04:00:27.513Z,58.48
2018-09-26T04:03:31.030Z,58.59
2018-09-26T04:06:34.535Z,58.11
2018-09-26T04:09:38.033Z,57.95
2018-09-26T04:12:41.664Z,57.38
2018-09-26T04:15:51.662Z,57.63
2018-09-26T04:18:55.119Z,57.53
2018-09-26T04:21:58.614Z,57.38
2018-09-26T04:25:02.088Z,56.57
2018-09-26T04:28:05.673Z,56.74
2018-09-26T04:31:09.243Z,56.61
2018-09-26T04:34:12.713Z,56.60
2018-09-26T04:37:16.213Z,56.47
2018-09-26T04:40:19.715Z,56.93
2018-09-26T04:43:23.308Z,56.76
2018-09-26T04:46:26.828Z,56.60
2018-09-26T04:49:30.537Z,57.32
2018-09-26T04:52:34.136Z,57.39
2018-09-26T04:55:37.646Z,57.44
2018-09-26T04:58:41.173Z,57.59
2018-09-26T05:01:44.693Z,57.64
2018-09-26T05:04:48.174Z,58.09
2018-09-26T05:07:51.800Z,58.31
2018-09-26T05:10:55.288Z,57.83
2018-09-26T05:13:58.885Z,58.60
2018-09-26T05:17:02.431Z,57.99
2018-09-26T05:20:06.040Z,58.26
2018-09-26T05:23:09.714Z,58.63
2018-09-26T05:26:13.218Z,58.03
2018-09-26T05:29:16.709Z,58.39
2018-09-26T05:32:20.198Z,58.86
2018-09-26T05:35:23.695Z,57.84
2018-09-26T05:38:27.196Z,58.71
2018-09-26T05:41:30.740Z,58.44
2018-09-26T05:44:34.203Z,57.96
2018-09-26T05:47:37.706Z,57.98
2018-09-26T05:50:41.232Z,57.36
2018-09-26T05:53:44.730Z,57.39
2018-09-26T05:56:48.250Z,57.18
2018-09-26T05:59:51.722Z,57.37
2018-09-26T06:02:55.227Z,56.41
2018-09-26T06:05:58.833Z,56.71
2018-09-26T06:09:06.194Z,56.37
2018-09-26T06:12:10.669Z,56.53
2018-09-26T06:15:14.205Z,56.54
2018-09-26T06:18:17.788Z,56.25
2018-09-26T06:21:21.300Z,56.39
2018-09-26T06:24:24.760Z,55.83
2018-09-26T06:27:28.328Z,55.78
2018-09-26T06:30:31.783Z,55.90
2018-09-26T06:33:35.535Z,55.74
2018-09-26T06:36:38.963Z,55.76
2018-09-26T06:39:42.471Z,55.49
2018-09-26T06:42:46.103Z,54.86
2018-09-26T06:45:49.590Z,54.97
2018-09-26T06:48:53.100Z,55.19
2018-09-26T06:51:56.592Z,54.79
2018-09-26T06:55:00.158Z,54.26
2018-09-26T06:58:03.604Z,53.74
2018-09-26T07:01:07.213Z,53.28
2018-09-26T07:04:10.691Z,53.32
2018-09-26T07:07:14.387Z,52.56
2018-09-26T07:10:17.838Z,52.60
2018-09-26T07:13:21.310Z,52.46
2018-09-26T07:16:24.899Z,51.94
2018-09-26T07:19:28.416Z,51.36
2018-09-26T07:22:31.908Z,50.96
2018-09-26T07:25:36.467Z,50.90
2018-09-26T07:28:39.955Z,51.23
2018-09-26T07:31:43.490Z,50.21
2018-09-26T07:34:48.011Z,50.36
2018-09-26T07:37:51.525Z,50.61
2018-09-26T07:40:55.007Z,50.22
2018-09-26T07:43:58.598Z,50.39
2018-09-26T07:47:02.125Z,50.32
2018-09-26T07:50:05.732Z,50.94
2018-09-26T07:53:10.309Z,50.54
2018-09-26T07:56:13.812Z,50.27
2018-09-26T07:59:17.357Z,49.86
2018-09-26T08:02:22.814Z,49.70
2018-09-26T08:05:26.323Z,49.47
2018-09-26T08:08:29.925Z,49.54
2018-09-26T08:11:33.432Z,49.58
2018-09-26T08:14:36.943Z,49.24
2018-09-26T08:17:40.521Z,48.71
2018-09-26T08:20:44.047Z,48.01
2018-09-26T08:23:47.589Z,48.29
2018-09-26T08:26:51.032Z,47.68
2018-09-26T08:29:54.502Z,48.47
2018-09-26T08:32:58.021Z,47.52
2018-09-26T08:36:01.611Z,46.81
2018-09-26T08:39:09.515Z,46.78
2018-09-26T08:42:13.179Z,45.88
2018-09-26T08:45:16.685Z,46.16
2018-09-26T08:48:20.460Z,45.60
2018-09-26T08:51:24.852Z,44.93
2018-09-26T08:54:28.375Z,45.41
2018-09-26T08:57:31.898Z,45.18
2018-09-26T09:00:36.258Z,45.02
2018-09-26T09:03:39.713Z,45.00
2018-09-26T09:06:43.455Z,43.12
2018-09-26T09:09:47.100Z,44.16
2018-09-26T09:12:50.541Z,44.00
2018-09-26T09:15:54.050Z,42.68
2018-09-26T09:18:57.677Z,42.88
2018-09-26T09:22:01.160Z,42.53
2018-09-26T09:25:04.723Z,42.97
2018-09-26T09:28:08.251Z,42.42
2018-09-26T09:31:11.777Z,42.80
2018-09-26T09:34:15.260Z,42.27
2018-09-26T09:37:18.766Z,41.48
2018-09-26T09:40:22.265Z,42.44
2018-09-26T09:43:25.826Z,41.69
2018-09-26T09:46:29.294Z,41.67
2018-09-26T09:49:32.778Z,41.92
2018-09-26T09:52:36.296Z,42.99
2018-09-26T09:55:39.805Z,42.47
2018-09-26T09:58:43.301Z,42.52
2018-09-26T10:01:46.900Z,42.70
2018-09-26T10:04:50.460Z,40.38
2018-09-26T10:07:54.391Z,40.71
2018-09-26T10:10:58.009Z,40.26
2018-09-26T10:14:01.622Z,38.96
2018-09-26T10:17:05.226Z,38.88
2018-09-26T10:20:08.865Z,41.06
2018-09-26T10:23:12.315Z,39.41
2018-09-26T10:26:15.848Z,39.21
2018-09-26T10:29:19.376Z,38.56
2018-09-26T10:32:22.872Z,39.35
2018-09-26T10:35:26.511Z,39.06
2018-09-26T10:38:30.042Z,38.38
2018-09-26T10:41:33.609Z,38.64
2018-09-26T10:44:37.243Z,37.99
2018-09-26T10:47:40.779Z,39.29
2018-09-26T10:50:44.248Z,39.47
2018-09-26T10:53:47.763Z,38.02
2018-09-26T10:56:51.260Z,38.35
2018-09-26T10:59:54.889Z,39.08
2018-09-26T11:02:58.450Z,38.64
2018-09-26T11:06:02.034Z,39.04
2018-09-26T11:09:08.270Z,38.18
2018-09-26T11:12:11.796Z,35.75
2018-09-26T11:15:15.321Z,35.69
2018-09-26T11:18:18.742Z,35.87
2018-09-26T11:21:22.209Z,35.15
2018-09-26T11:24:25.648Z,36.63
2018-09-26T11:27:29.158Z,36.51
2018-09-26T11:30:32.547Z,35.99
2018-09-26T11:33:36.100Z,35.98
2018-09-26T11:36:39.596Z,35.39
2018-09-26T11:42:40.354Z,35.36
2018-09-26T11:45:43.816Z,35.65
2018-09-26T11:48:47.229Z,34.94
2018-09-26T11:51:50.717Z,35.51
2018-09-26T11:54:54.242Z,36.70
2018-09-26T11:57:57.727Z,35.85
2018-09-26T12:01:01.277Z,34.91
2018-09-26T12:04:04.782Z,34.43
2018-09-26T12:07:15.033Z,34.99
2018-09-26T12:10:18.499Z,35.95
2018-09-26T12:13:21.909Z,35.68
2018-09-26T12:16:25.555Z,34.90
2018-09-26T12:19:28.953Z,35.68
2018-09-26T12:22:32.447Z,34.73
2018-09-26T12:25:35.918Z,34.59
2018-09-26T12:28:39.410Z,35.11
2018-09-26T12:31:42.811Z,34.67
2018-09-26T12:34:46.256Z,35.08
2018-09-26T12:37:49.715Z,33.33
2018-09-26T12:40:53.203Z,33.93
2018-09-26T12:43:57.857Z,35.06
2018-09-26T12:47:01.333Z,34.19
2018-09-26T12:50:05.617Z,34.50
2018-09-26T12:53:09.520Z,34.96
2018-09-26T12:56:13.189Z,34.21
2018-09-26T12:59:16.690Z,34.05
2018-09-26T13:02:20.395Z,35.05
2018-09-26T13:05:23.913Z,34.62
2018-09-26T13:08:27.436Z,34.62
2018-09-26T13:11:31.051Z,33.41
2018-09-26T13:14:34.521Z,34.00
2018-09-26T13:17:38.332Z,33.05
2018-09-26T13:20:41.815Z,32.58
2018-09-26T13:23:45.456Z,33.61
2018-09-26T13:26:48.931Z,34.46
2018-09-26T13:29:52.446Z,33.68
2018-09-26T13:32:56.019Z,32.08
2018-09-26T13:35:59.473Z,32.66
2018-09-26T13:39:03.128Z,32.24
2018-09-26T13:42:06.767Z,30.90
2018-09-26T13:45:10.176Z,29.95
2018-09-26T13:48:13.686Z,28.69
2018-09-26T13:51:17.198Z,28.82
2018-09-26T13:54:20.934Z,30.17
2018-09-26T13:57:24.473Z,29.37
2018-09-26T14:00:27.956Z,30.70
2018-09-26T14:03:31.428Z,29.53
2018-09-26T14:06:35.173Z,30.25
2018-09-26T14:09:38.688Z,31.34
2018-09-26T14:12:42.510Z,31.58
2018-09-26T14:15:45.897Z,31.23
2018-09-26T14:18:49.677Z,31.84
2018-09-26T14:21:53.307Z,32.82
2018-09-26T14:24:57.042Z,33.00
2018-09-26T14:28:00.916Z,31.31
2018-09-26T14:31:05.092Z,30.63
2018-09-26T14:34:08.776Z,29.51
2018-09-26T14:37:12.367Z,30.89
2018-09-26T14:40:16.077Z,30.08
2018-09-26T14:43:19.816Z,30.48
2018-09-26T14:46:23.677Z,29.57
2018-09-26T14:49:27.260Z,28.57
2018-09-26T14:52:31.140Z,28.27
2018-09-26T14:55:34.590Z,28.60
2018-09-26T14:58:38.754Z,27.90
2018-09-26T15:01:42.403Z,27.72
2018-09-26T15:04:46.271Z,27.37
2018-09-26T15:07:49.882Z,28.04
2018-09-26T15:10:53.582Z,28.40
2018-09-26T15:13:57.562Z,29.09
2018-09-26T15:17:01.212Z,29.27
2018-09-26T15:20:05.369Z,28.15
2018-09-26T15:23:09.133Z,27.93
2018-09-26T15:26:12.883Z,28.14
2018-09-26T15:29:16.514Z,28.58
2018-09-26T15:32:20.291Z,28.72
2018-09-26T15:35:23.971Z,27.55
2018-09-26T15:38:27.533Z,26.81
2018-09-26T15:41:31.260Z,27.45
2018-09-26T15:44:35.874Z,26.77
2018-09-26T15:47:39.471Z,26.81
2018-09-26T15:50:43.214Z,26.38
2018-09-26T15:53:46.893Z,25.98
2018-09-26T15:56:50.478Z,27.28
2018-09-26T15:59:54.318Z,26.06
2018-09-26T16:02:57.867Z,26.41
2018-09-26T16:06:01.515Z,26.27
2018-09-26T16:09:05.879Z,26.37
2018-09-26T16:12:09.424Z,26.00
2018-09-26T16:15:12.926Z,26.80
2018-09-26T16:18:16.515Z,26.77
2018-09-26T16:21:20.044Z,27.93
2018-09-26T16:24:23.596Z,27.53
2018-09-26T16:27:27.068Z,27.74
2018-09-26T16:30:30.647Z,28.59
2018-09-26T16:33:34.253Z,28.18
2018-09-26T16:36:39.744Z,29.46
2018-09-26T16:39:43.206Z,29.65
2018-09-26T16:42:47.014Z,30.66
2018-09-26T16:45:50.935Z,31.04
2018-09-26T16:48:54.436Z,32.00
2018-09-26T16:51:58.145Z,31.89
2018-09-26T16:55:01.666Z,32.43
2018-09-26T16:58:05.204Z,32.62
2018-09-26T17:01:08.766Z,32.16
2018-09-26T17:04:12.412Z,33.37
2018-09-26T17:07:15.904Z,33.96
2018-09-26T17:10:19.425Z,34.67
2018-09-26T17:13:22.868Z,35.28
2018-09-26T17:16:26.562Z,35.26
2018-09-26T17:19:30.078Z,36.51
2018-09-26T17:22:33.618Z,36.55
2018-09-26T17:25:37.367Z,37.38
2018-09-26T17:28:40.960Z,38.43
2018-09-26T17:31:44.417Z,39.21
2018-09-26T17:34:48.015Z,38.98
2018-09-26T17:37:51.849Z,39.84
2018-09-26T17:40:56.360Z,40.70
2018-09-26T17:43:59.866Z,41.12
2018-09-26T17:47:03.405Z,41.17
2018-09-26T17:50:07.455Z,40.99
2018-09-26T17:53:10.967Z,41.16
2018-09-26T17:56:14.496Z,41.29
2018-09-26T17:59:18.010Z,41.29
2018-09-26T18:02:21.569Z,41.40
2018-09-26T18:05:25.111Z,42.35
2018-09-26T18:08:28.628Z,43.48
2018-09-26T18:11:32.145Z,44.56
2018-09-26T18:14:35.827Z,45.78
2018-09-26T18:17:39.320Z,45.98
2018-09-26T18:20:42.895Z,46.62
2018-09-26T18:23:46.433Z,47.40
2018-09-26T18:26:49.948Z,48.58
2018-09-26T18:29:53.538Z,49.30
2018-09-26T18:32:57.256Z,49.73
2018-09-26T18:36:00.723Z,50.12
2018-09-26T18:39:05.780Z,50.52
2018-09-26T18:42:09.259Z,50.54
2018-09-26T18:45:12.889Z,50.71
2018-09-26T18:48:16.372Z,51.77
2018-09-26T18:51:19.923Z,52.16
2018-09-26T18:54:23.448Z,52.70
2018-09-26T18:57:27.061Z,52.94
2018-09-26T19:00:30.700Z,53.82
2018-09-26T19:03:34.267Z,53.99
2018-09-26T19:06:39.972Z,54.60
2018-09-26T19:09:43.497Z,54.70
2018-09-26T19:12:47.240Z,55.04
2018-09-26T19:15:51.730Z,54.31
2018-09-26T19:18:55.285Z,54.54
2018-09-26T19:21:58.873Z,54.73
2018-09-26T19:25:02.383Z,55.04
2018-09-26T19:28:07.072Z,55.45
2018-09-26T19:31:13.165Z,55.90
2018-09-26T19:34:17.911Z,56.27
2018-09-26T19:37:22.394Z,56.27
2018-09-26T19:40:25.963Z,56.27
2018-09-26T19:43:29.595Z,56.40
2018-09-26T19:46:33.114Z,56.78
2018-09-26T19:49:36.661Z,57.10
2018-09-26T19:52:40.256Z,57.53
2018-09-26T19:55:43.921Z,57.75
2018-09-26T19:58:47.567Z,58.00
2018-09-26T20:01:51.101Z,58.25
2018-09-26T20:04:54.716Z,58.44
2018-09-26T20:07:59.351Z,58.22
2018-09-26T20:11:03.489Z,57.92
2018-09-26T20:14:07.296Z,57.52
2018-09-26T20:17:10.841Z,56.62
2018-09-26T20:20:14.344Z,56.77
2018-09-26T20:23:17.897Z,56.89
2018-09-26T20:26:21.393Z,56.90
2018-09-26T20:29:25.189Z,56.91
2018-09-26T20:32:28.717Z,56.90
2018-09-26T20:35:32.417Z,57.38
2018-09-26T20:38:36.326Z,58.04
2018-09-26T20:41:40.256Z,58.39
2018-09-26T20:44:44.825Z,58.59
2018-09-26T20:47:50.317Z,58.35
2018-09-26T20:50:53.821Z,59.12
2018-09-26T20:53:57.725Z,59.20
2018-09-26T20:57:01.305Z,58.84
2018-09-26T21:00:05.726Z,59.10
2018-09-26T21:03:09.368Z,59.03
2018-09-26T21:06:13.984Z,59.03
2018-09-26T21:09:17.675Z,58.43
2018-09-26T21:12:21.253Z,59.19
2018-09-26T21:15:24.778Z,58.43
2018-09-26T21:18:28.378Z,59.00
2018-09-26T21:21:31.899Z,59.56
2018-09-26T21:24:35.579Z,59.73
2018-09-26T21:27:39.220Z,59.73
2018-09-26T21:30:43.090Z,59.69
2018-09-26T21:33:46.554Z,60.41
2018-09-26T21:36:53.828Z,60.72
2018-09-26T21:39:58.382Z,60.82
2018-09-26T21:43:01.817Z,59.89
2018-09-26T21:46:05.394Z,60.34
2018-09-26T21:49:09.044Z,60.62
2018-09-26T21:52:12.594Z,62.43
2018-09-26T21:55:16.332Z,61.95
2018-09-26T21:58:19.880Z,62.38
2018-09-26T22:01:23.551Z,61.57
2018-09-26T22:04:27.066Z,62.38
2018-09-26T22:07:30.501Z,62.64
2018-09-26T22:10:34.061Z,62.13
2018-09-26T22:13:39.729Z,62.65
2018-09-26T22:16:43.219Z,62.44
2018-09-26T22:19:50.441Z,61.71
2018-09-26T22:23:07.242Z,63.50
2018-09-26T22:26:18.045Z,63.38
2018-09-26T22:29:21.572Z,63.50
2018-09-26T22:32:26.067Z,63.19
2018-09-26T22:35:31.648Z,62.45
2018-09-26T22:38:43.591Z,62.85
2018-09-26T22:41:51.961Z,64.29
2018-09-26T22:44:59.224Z,63.90
2018-09-26T22:48:02.797Z,64.53
2018-09-26T22:51:06.370Z,64.95
2018-09-26T22:54:10.944Z,64.08
2018-09-26T22:57:14.495Z,62.94
2018-09-26T23:00:18.006Z,64.33
2018-09-26T23:03:21.533Z,65.39
2018-09-26T23:06:24.985Z,65.27
2018-09-26T23:09:28.713Z,65.19
2018-09-26T23:12:32.272Z,64.77
2018-09-26T23:15:37.819Z,64.01
2018-09-26T23:18:41.278Z,63.61
2018-09-26T23:21:45.157Z,65.58
2018-09-26T23:24:48.665Z,65.16
2018-09-26T23:27:52.165Z,65.03
2018-09-26T23:30:55.695Z,65.88
2018-09-26T23:33:59.176Z,65.79
2018-09-26T23:37:02.744Z,65.84
2018-09-26T23:40:06.515Z,65.30
2018-09-26T23:43:09.985Z,66.00
2018-09-26T23:46:13.491Z,65.97
2018-09-26T23:49:17.055Z,65.79
2018-09-26T23:52:20.595Z,65.96
2018-09-26T23:55:24.191Z,66.01
2018-09-26T23:58:27.701Z,66.37
